Time;durP1;ratioP1;P1;durP2;ratioP2;P2;SDS_P1;SDS_P2;PMS_P1;PMS_P2;Temp;Humidity;BMP_temperature;BMP_pressure;BME280_temperature;BME280_humidity;BME280_pressure;Samples;Min_cycle;Max_cycle;Signal;HPM_P1;HPM_P2
2020/12/06 00:02:09;;;;;;;1999.90;999.90;;;;;;;;;;5052413;28;20029;-83
2020/12/06 00:04:35;;;;;;;1999.90;999.90;;;;;;;;;;5051566;28;20025;-84
2020/12/06 00:07:01;;;;;;;1999.90;999.90;;;;;;;;;;5051512;28;20043;-83
2020/12/06 00:09:27;;;;;;;1999.90;999.90;;;;;;;;;;5051030;28;20051;-83
2020/12/06 00:11:57;;;;;;;1999.90;999.90;;;;;;;;;;5051990;28;20029;-83
2020/12/06 00:14:23;;;;;;;1999.90;999.90;;;;;;;;;;5048308;28;20031;-83
2020/12/06 00:16:49;;;;;;;1999.90;999.90;;;;;;;;;;5051424;28;20119;-83
2020/12/06 00:19:15;;;;;;;1999.90;999.90;;;;;;;;;;5047595;28;20025;-83
2020/12/06 00:21:41;;;;;;;1999.90;999.90;;;;;;;;;;5051104;28;20028;-83
2020/12/06 00:24:07;;;;;;;1999.90;999.90;;;;;;;;;;5050382;28;20021;-83
2020/12/06 00:26:33;;;;;;;1999.90;999.90;;;;;;;;;;5048296;28;20041;-82
2020/12/06 00:28:59;;;;;;;1999.90;999.90;;;;;;;;;;5031880;28;20562;-84
2020/12/06 00:31:25;;;;;;;1999.90;999.90;;;;;;;;;;5051272;28;20033;-84
2020/12/06 00:33:51;;;;;;;1999.90;999.90;;;;;;;;;;5051548;28;20393;-83
2020/12/06 00:36:18;;;;;;;1999.90;999.90;;;;;;;;;;5050231;28;20105;-83
2020/12/06 00:38:44;;;;;;;1999.90;999.90;;;;;;;;;;5052383;28;20025;-84
2020/12/06 00:41:14;;;;;;;1999.90;999.90;;;;;;;;;;5051860;28;20021;-84
2020/12/06 00:43:40;;;;;;;1999.90;999.90;;;;;;;;;;5051101;28;20033;-84
2020/12/06 00:46:06;;;;;;;1999.90;999.90;;;;;;;;;;5051686;28;20107;-84
2020/12/06 00:48:32;;;;;;;1999.90;999.90;;;;;;;;;;5050571;28;20025;-84
2020/12/06 00:50:59;;;;;;;1999.90;999.90;;;;;;;;;;5047267;28;20029;-84
2020/12/06 00:53:25;;;;;;;1999.90;999.90;;;;;;;;;;5051181;28;20152;-84
2020/12/06 00:55:51;;;;;;;1999.90;999.90;;;;;;;;;;5052183;28;20025;-82
2020/12/06 00:58:17;;;;;;;1999.90;999.90;;;;;;;;;;5050754;28;20048;-83
2020/12/06 01:00:43;;;;;;;1999.90;999.90;;;;;;;;;;5050672;28;20060;-83
2020/12/06 01:03:09;;;;;;;1999.90;999.90;;;;;;;;;;5049575;28;20029;-83
2020/12/06 01:05:35;;;;;;;1999.90;999.90;;;;;;;;;;5049275;28;20366;-83
2020/12/06 01:08:01;;;;;;;1999.90;999.90;;;;;;;;;;5050147;28;20453;-82
2020/12/06 01:10:27;;;;;;;1999.90;999.90;;;;;;;;;;5049326;28;20025;-83
2020/12/06 01:12:54;;;;;;;1999.90;999.90;;;;;;;;;;5051529;28;20029;-83
2020/12/06 01:15:20;;;;;;;1999.90;999.90;;;;;;;;;;5032369;28;20075;-83
2020/12/06 01:17:46;;;;;;;1999.90;999.90;;;;;;;;;;5050614;28;20033;-83
2020/12/06 01:20:12;;;;;;;1999.90;999.90;;;;;;;;;;5050475;28;20021;-82
2020/12/06 01:22:38;;;;;;;1999.90;999.90;;;;;;;;;;5033546;28;20079;-83
2020/12/06 01:25:05;;;;;;;1999.90;999.90;;;;;;;;;;5049123;28;20025;-82
2020/12/06 01:27:31;;;;;;;1999.90;999.90;;;;;;;;;;5051246;28;20619;-83
2020/12/06 01:29:58;;;;;;;1999.90;999.90;;;;;;;;;;5051143;28;20412;-83
2020/12/06 01:32:24;;;;;;;1999.90;999.90;;;;;;;;;;5051053;28;20036;-83
2020/12/06 01:34:50;;;;;;;1999.90;999.90;;;;;;;;;;5050580;28;20108;-83
2020/12/06 01:37:16;;;;;;;1999.90;999.90;;;;;;;;;;5051223;28;20029;-83
2020/12/06 01:39:42;;;;;;;1999.90;999.90;;;;;;;;;;5031820;28;20025;-83
2020/12/06 01:42:08;;;;;;;1999.90;999.90;;;;;;;;;;5051184;28;20032;-83
2020/12/06 01:44:35;;;;;;;1999.90;999.90;;;;;;;;;;5050195;28;20045;-83
2020/12/06 01:47:02;;;;;;;1999.90;999.90;;;;;;;;;;5048035;28;20037;-83
2020/12/06 01:49:35;;;;;;;1999.90;999.90;;;;;;;;;;5050619;28;20021;-83
2020/12/06 01:52:02;;;;;;;1999.90;999.90;;;;;;;;;;5044903;28;20025;-83
2020/12/06 01:54:28;;;;;;;1999.90;999.90;;;;;;;;;;5049827;28;20456;-83
2020/12/06 01:56:54;;;;;;;1999.90;999.90;;;;;;;;;;5049724;28;20032;-83
2020/12/06 01:59:20;;;;;;;1999.90;999.90;;;;;;;;;;5051413;28;20036;-83
2020/12/06 02:01:53;;;;;;;1999.90;999.90;;;;;;;;;;5054958;28;20040;-83
2020/12/06 02:04:19;;;;;;;1999.90;999.90;;;;;;;;;;5049764;28;20021;-83
2020/12/06 02:06:45;;;;;;;1999.90;999.90;;;;;;;;;;5053840;28;20040;-83
2020/12/06 02:09:12;;;;;;;1999.90;999.90;;;;;;;;;;5053934;28;20036;-83
2020/12/06 02:11:38;;;;;;;1999.90;999.90;;;;;;;;;;5054886;28;20028;-83
2020/12/06 02:14:04;;;;;;;1999.90;999.90;;;;;;;;;;5053842;28;20508;-83
2020/12/06 02:16:30;;;;;;;1999.90;999.90;;;;;;;;;;5054790;28;20844;-83
2020/12/06 02:18:56;;;;;;;1999.90;999.90;;;;;;;;;;5053967;28;20025;-83
2020/12/06 02:21:22;;;;;;;1999.90;999.90;;;;;;;;;;5052982;28;20035;-83
2020/12/06 02:23:48;;;;;;;1999.90;999.90;;;;;;;;;;5054786;28;20095;-83
2020/12/06 02:26:14;;;;;;;1999.90;999.90;;;;;;;;;;5035178;28;20120;-84
2020/12/06 02:28:40;;;;;;;1999.90;999.90;;;;;;;;;;5051210;28;20064;-83
2020/12/06 02:31:06;;;;;;;1999.90;999.90;;;;;;;;;;5053815;28;20033;-83
2020/12/06 02:33:32;;;;;;;1999.90;999.90;;;;;;;;;;5053849;28;20075;-83
2020/12/06 02:35:58;;;;;;;1999.90;999.90;;;;;;;;;;5054453;28;20025;-83
2020/12/06 02:38:24;;;;;;;1999.90;999.90;;;;;;;;;;5053346;28;20512;-83
2020/12/06 02:40:50;;;;;;;1999.90;999.90;;;;;;;;;;5048489;28;20013;-83
2020/12/06 02:43:16;;;;;;;1999.90;999.90;;;;;;;;;;5051795;28;20028;-83
2020/12/06 02:45:42;;;;;;;1999.90;999.90;;;;;;;;;;5052060;28;20142;-83
2020/12/06 02:48:08;;;;;;;1999.90;999.90;;;;;;;;;;5053180;28;20045;-83
2020/12/06 02:50:34;;;;;;;1999.90;999.90;;;;;;;;;;5053156;28;20032;-83
2020/12/06 02:53:00;;;;;;;1999.90;999.90;;;;;;;;;;5051218;28;20032;-83
2020/12/06 02:55:27;;;;;;;1999.90;999.90;;;;;;;;;;5051021;28;20017;-83
2020/12/06 02:57:53;;;;;;;1999.90;999.90;;;;;;;;;;5054177;28;20021;-83
2020/12/06 03:00:19;;;;;;;1999.90;999.90;;;;;;;;;;5050837;28;20109;-83
2020/12/06 03:02:45;;;;;;;1999.90;999.90;;;;;;;;;;5035072;28;20464;-83
2020/12/06 03:05:11;;;;;;;1999.90;999.90;;;;;;;;;;5051971;28;20013;-83
2020/12/06 03:07:37;;;;;;;1999.90;999.90;;;;;;;;;;5053640;28;20033;-83
2020/12/06 03:10:06;;;;;;;1999.90;999.90;;;;;;;;;;5052655;28;20047;-83
2020/12/06 03:12:35;;;;;;;1999.90;999.90;;;;;;;;;;5053642;28;20142;-83
2020/12/06 03:15:01;;;;;;;1999.90;999.90;;;;;;;;;;5051518;28;20474;-83
2020/12/06 03:17:27;;;;;;;1999.90;999.90;;;;;;;;;;5053714;28;20036;-83
2020/12/06 03:19:53;;;;;;;1999.90;999.90;;;;;;;;;;5053783;28;20052;-83
2020/12/06 03:22:19;;;;;;;1999.90;999.90;;;;;;;;;;5052478;28;20068;-83
2020/12/06 03:24:45;;;;;;;1999.90;999.90;;;;;;;;;;5052696;28;20029;-83
2020/12/06 03:27:11;;;;;;;1999.90;999.90;;;;;;;;;;5052725;28;20389;-83
2020/12/06 03:29:37;;;;;;;1999.90;999.90;;;;;;;;;;5053245;28;20056;-83
2020/12/06 03:32:03;;;;;;;1999.90;999.90;;;;;;;;;;5034096;28;20539;-83
2020/12/06 03:34:29;;;;;;;1999.90;999.90;;;;;;;;;;5053118;28;20037;-83
2020/12/06 03:36:55;;;;;;;1999.90;999.90;;;;;;;;;;5053194;28;20090;-83
2020/12/06 03:39:21;;;;;;;1999.90;999.90;;;;;;;;;;5051951;28;20104;-83
2020/12/06 03:41:47;;;;;;;1999.90;999.90;;;;;;;;;;5050486;28;20108;-83
2020/12/06 03:44:13;;;;;;;1999.90;999.90;;;;;;;;;;5052343;28;20397;-83
2020/12/06 03:46:39;;;;;;;1999.90;999.90;;;;;;;;;;5052943;28;20501;-83
2020/12/06 03:49:06;;;;;;;1999.90;999.90;;;;;;;;;;5052003;28;20047;-82
2020/12/06 03:51:32;;;;;;;1999.90;999.90;;;;;;;;;;5052897;28;20029;-83
2020/12/06 03:53:57;;;;;;;1999.90;999.90;;;;;;;;;;5052865;28;20031;-83
2020/12/06 03:56:23;;;;;;;1999.90;999.90;;;;;;;;;;5051579;28;20116;-83
2020/12/06 03:58:49;;;;;;;1999.90;999.90;;;;;;;;;;5049771;28;20482;-82
2020/12/06 04:01:15;;;;;;;1999.90;999.90;;;;;;;;;;5049178;28;20025;-83
2020/12/06 04:03:41;;;;;;;1999.90;999.90;;;;;;;;;;5049312;28;20100;-82
2020/12/06 04:06:08;;;;;;;1999.90;999.90;;;;;;;;;;5052700;28;20060;-82
2020/12/06 04:08:34;;;;;;;1999.90;999.90;;;;;;;;;;5049096;28;20059;-82
2020/12/06 04:10:59;;;;;;;1999.90;999.90;;;;;;;;;;5050261;28;20378;-83
2020/12/06 04:13:26;;;;;;;1999.90;999.90;;;;;;;;;;5051395;28;20032;-83
2020/12/06 04:15:52;;;;;;;1999.90;999.90;;;;;;;;;;5052127;28;20021;-83
2020/12/06 04:18:18;;;;;;;1999.90;999.90;;;;;;;;;;5052444;28;20025;-83
2020/12/06 04:20:44;;;;;;;1999.90;999.90;;;;;;;;;;5050425;28;20033;-83
2020/12/06 04:23:10;;;;;;;1999.90;999.90;;;;;;;;;;5028977;28;20428;-83
2020/12/06 04:25:36;;;;;;;1999.90;999.90;;;;;;;;;;5052422;28;20025;-83
2020/12/06 04:28:02;;;;;;;1999.90;999.90;;;;;;;;;;5052186;28;20037;-84
2020/12/06 04:30:28;;;;;;;1999.90;999.90;;;;;;;;;;5052139;28;20277;-84
2020/12/06 04:32:53;;;;;;;1999.90;999.90;;;;;;;;;;5034255;28;20497;-84
2020/12/06 04:35:19;;;;;;;1999.90;999.90;;;;;;;;;;5049485;28;20034;-84
2020/12/06 04:37:45;;;;;;;1999.90;999.90;;;;;;;;;;5050135;28;20032;-84
2020/12/06 04:40:11;;;;;;;1999.90;999.90;;;;;;;;;;5051072;28;20409;-84
2020/12/06 04:42:38;;;;;;;1999.90;999.90;;;;;;;;;;5052104;28;20079;-84
2020/12/06 04:45:04;;;;;;;1999.90;999.90;;;;;;;;;;5050868;28;20025;-84
2020/12/06 04:47:41;;;;;;;1999.90;999.90;;;;;;;;;;5050815;28;20160;-84
2020/12/06 04:50:11;;;;;;;1999.90;999.90;;;;;;;;;;5046253;28;20096;-83
2020/12/06 04:52:43;;;;;;;1999.90;999.90;;;;;;;;;;5050937;28;20041;-84
2020/12/06 04:55:11;;;;;;;1999.90;999.90;;;;;;;;;;5052067;28;20024;-84
2020/12/06 04:57:38;;;;;;;1999.90;999.90;;;;;;;;;;5051779;28;20032;-84
2020/12/06 05:00:07;;;;;;;1999.90;999.90;;;;;;;;;;5031884;28;20029;-84
2020/12/06 05:02:34;;;;;;;1999.90;999.90;;;;;;;;;;5050835;28;20040;-84
2020/12/06 05:05:03;;;;;;;1999.90;999.90;;;;;;;;;;5046306;28;20060;-84
2020/12/06 05:07:30;;;;;;;1999.90;999.90;;;;;;;;;;5050907;28;20112;-84
2020/12/06 05:09:56;;;;;;;1999.90;999.90;;;;;;;;;;5048388;28;20020;-84
2020/12/06 05:12:22;;;;;;;1999.90;999.90;;;;;;;;;;5049119;28;20188;-84
2020/12/06 05:14:49;;;;;;;1999.90;999.90;;;;;;;;;;5052236;28;20021;-84
2020/12/06 05:17:15;;;;;;;1999.90;999.90;;;;;;;;;;5051429;28;20102;-84
2020/12/06 05:19:41;;;;;;;1999.90;999.90;;;;;;;;;;5050486;28;20021;-84
2020/12/06 05:22:08;;;;;;;1999.90;999.90;;;;;;;;;;5048477;28;20036;-83
2020/12/06 05:24:36;;;;;;;1999.90;999.90;;;;;;;;;;5050671;28;20032;-84
2020/12/06 05:27:03;;;;;;;1999.90;999.90;;;;;;;;;;5057896;28;20576;-82
2020/12/06 05:29:29;;;;;;;1999.90;999.90;;;;;;;;;;5057282;28;20076;-84
2020/12/06 05:31:56;;;;;;;1999.90;999.90;;;;;;;;;;5051547;28;20079;-84
2020/12/06 05:34:22;;;;;;;1999.90;999.90;;;;;;;;;;5049974;28;20474;-84
2020/12/06 05:36:48;;;;;;;1999.90;999.90;;;;;;;;;;5055573;28;20029;-83
2020/12/06 05:39:14;;;;;;;1999.90;999.90;;;;;;;;;;5054479;28;20494;-84
2020/12/06 05:41:42;;;;;;;1999.90;999.90;;;;;;;;;;5054601;28;20108;-83
2020/12/06 05:44:09;;;;;;;1999.90;999.90;;;;;;;;;;5055450;28;20473;-83
2020/12/06 05:46:35;;;;;;;1999.90;999.90;;;;;;;;;;5054443;28;20083;-84
2020/12/06 05:49:05;;;;;;;1999.90;999.90;;;;;;;;;;5036919;28;20570;-84
2020/12/06 05:51:31;;;;;;;1999.90;999.90;;;;;;;;;;5036042;28;20107;-84
2020/12/06 05:53:57;;;;;;;1999.90;999.90;;;;;;;;;;5054205;28;20033;-83
2020/12/06 05:56:24;;;;;;;1999.90;999.90;;;;;;;;;;5055225;28;20036;-83
2020/12/06 05:58:51;;;;;;;1999.90;999.90;;;;;;;;;;5035667;28;20515;-83
2020/12/06 06:01:18;;;;;;;1999.90;999.90;;;;;;;;;;5055026;28;20040;-84
2020/12/06 06:03:46;;;;;;;1999.90;999.90;;;;;;;;;;5050382;28;20400;-84
2020/12/06 06:06:24;;;;;;;1999.90;999.90;;;;;;;;;;5053197;28;20119;-84
2020/12/06 06:08:52;;;;;;;1999.90;999.90;;;;;;;;;;5052214;28;20388;-84
2020/12/06 06:11:22;;;;;;;1999.90;999.90;;;;;;;;;;5054794;28;20021;-84
2020/12/06 06:13:52;;;;;;;1999.90;999.90;;;;;;;;;;5050155;28;20021;-84
2020/12/06 06:16:19;;;;;;;1999.90;999.90;;;;;;;;;;5053925;28;20123;-84
2020/12/06 06:18:45;;;;;;;1999.90;999.90;;;;;;;;;;5053948;28;20497;-84
2020/12/06 06:21:12;;;;;;;1999.90;999.90;;;;;;;;;;5055212;28;20508;-84
2020/12/06 06:23:38;;;;;;;1999.90;999.90;;;;;;;;;;5053918;28;20025;-83
2020/12/06 06:26:05;;;;;;;1999.90;999.90;;;;;;;;;;5054106;28;20032;-85
2020/12/06 06:28:31;;;;;;;1999.90;999.90;;;;;;;;;;5052560;28;20191;-85
2020/12/06 06:30:57;;;;;;;1999.90;999.90;;;;;;;;;;5054962;28;20025;-85
2020/12/06 06:33:24;;;;;;;1999.90;999.90;;;;;;;;;;5053760;28;20052;-85
2020/12/06 06:35:51;;;;;;;1999.90;999.90;;;;;;;;;;5053870;28;20117;-85
2020/12/06 06:38:20;;;;;;;1999.90;999.90;;;;;;;;;;5053209;28;20492;-85
2020/12/06 06:40:46;;;;;;;1999.90;999.90;;;;;;;;;;5054568;28;20040;-85
2020/12/06 06:43:16;;;;;;;1999.90;999.90;;;;;;;;;;5052365;28;20389;-85
2020/12/06 06:45:43;;;;;;;1999.90;999.90;;;;;;;;;;5052659;28;20036;-85
2020/12/06 06:48:13;;;;;;;1999.90;999.90;;;;;;;;;;5036424;28;20033;-84
2020/12/06 06:50:40;;;;;;;1999.90;999.90;;;;;;;;;;5054322;28;20028;-84
2020/12/06 06:53:06;;;;;;;1999.90;999.90;;;;;;;;;;5034737;28;20059;-84
2020/12/06 06:56:04;;;;;;;1999.90;999.90;;;;;;;;;;5054178;28;20477;-84
2020/12/06 06:58:31;;;;;;;1999.90;999.90;;;;;;;;;;4997045;28;20052;-84
2020/12/06 07:01:15;;;;;;;1999.90;999.90;;;;;;;;;;5054053;28;20063;-84
2020/12/06 07:03:45;;;;;;;1999.90;999.90;;;;;;;;;;5052901;28;20040;-84
2020/12/06 07:06:11;;;;;;;1999.90;999.90;;;;;;;;;;5052511;28;20028;-84
2020/12/06 07:08:39;;;;;;;1999.90;999.90;;;;;;;;;;5050599;28;20040;-83
2020/12/06 07:11:06;;;;;;;1999.90;999.90;;;;;;;;;;5063148;28;20020;-84
2020/12/06 07:13:32;;;;;;;1999.90;999.90;;;;;;;;;;5056675;28;20029;-84
2020/12/06 07:15:58;;;;;;;1999.90;999.90;;;;;;;;;;5052781;28;20025;-84
2020/12/06 07:18:24;;;;;;;1999.90;999.90;;;;;;;;;;5051832;28;20579;-83
2020/12/06 07:20:50;;;;;;;1999.90;999.90;;;;;;;;;;5053779;28;20025;-84
2020/12/06 07:23:16;;;;;;;1999.90;999.90;;;;;;;;;;5053499;28;20033;-84
2020/12/06 07:25:42;;;;;;;1999.90;999.90;;;;;;;;;;5052535;28;20108;-84
2020/12/06 07:28:09;;;;;;;1999.90;999.90;;;;;;;;;;5048671;28;20106;-83
2020/12/06 07:30:35;;;;;;;1999.90;999.90;;;;;;;;;;5048562;28;20047;-83
2020/12/06 07:33:01;;;;;;;1999.90;999.90;;;;;;;;;;5052589;28;20489;-84
2020/12/06 07:35:27;;;;;;;1999.90;999.90;;;;;;;;;;5053631;28;20021;-84
2020/12/06 07:37:57;;;;;;;1999.90;999.90;;;;;;;;;;5051618;28;20227;-85
2020/12/06 07:40:23;;;;;;;1999.90;999.90;;;;;;;;;;5053027;28;20064;-85
2020/12/06 07:42:49;;;;;;;1999.90;999.90;;;;;;;;;;5051664;28;20021;-84
2020/12/06 07:45:15;;;;;;;1999.90;999.90;;;;;;;;;;5053126;28;20032;-84
2020/12/06 07:47:41;;;;;;;1999.90;999.90;;;;;;;;;;5051523;28;20036;-83
2020/12/06 07:50:07;;;;;;;1999.90;999.90;;;;;;;;;;5050240;28;20029;-83
2020/12/06 07:52:34;;;;;;;1999.90;999.90;;;;;;;;;;5053346;28;20038;-84
2020/12/06 07:55:02;;;;;;;1999.90;999.90;;;;;;;;;;5064055;28;20048;-83
2020/12/06 07:57:40;;;;;;;1999.90;999.90;;;;;;;;;;5052102;28;20555;-84
2020/12/06 08:00:07;;;;;;;1999.90;999.90;;;;;;;;;;5033990;28;20428;-84
2020/12/06 08:02:34;;;;;;;1999.90;999.90;;;;;;;;;;5056083;28;20131;-86
2020/12/06 08:05:01;;;;;;;1999.90;999.90;;;;;;;;;;5054143;28;20032;-87
2020/12/06 08:07:28;;;;;;;1999.90;999.90;;;;;;;;;;5053093;28;20047;-86
2020/12/06 08:09:55;;;;;;;1999.90;999.90;;;;;;;;;;5053506;28;20033;-86
2020/12/06 08:12:23;;;;;;;1999.90;999.90;;;;;;;;;;5052910;28;20021;-86
2020/12/06 08:14:58;;;;;;;1999.90;999.90;;;;;;;;;;5053044;28;20031;-85
2020/12/06 08:17:24;;;;;;;1999.90;999.90;;;;;;;;;;5035168;28;20409;-86
2020/12/06 08:19:50;;;;;;;1999.90;999.90;;;;;;;;;;5053262;28;20020;-85
2020/12/06 08:22:16;;;;;;;1999.90;999.90;;;;;;;;;;5052736;28;20079;-87
2020/12/06 08:24:42;;;;;;;1999.90;999.90;;;;;;;;;;5035402;28;20477;-87
2020/12/06 08:27:19;;;;;;;1999.90;999.90;;;;;;;;;;5053092;28;20028;-87
2020/12/06 08:29:47;;;;;;;1999.90;999.90;;;;;;;;;;5052942;28;20055;-87
2020/12/06 08:32:13;;;;;;;1999.90;999.90;;;;;;;;;;5053228;28;20025;-86
2020/12/06 08:34:39;;;;;;;1999.90;999.90;;;;;;;;;;5055041;28;20031;-84
2020/12/06 08:37:18;;;;;;;1999.90;999.90;;;;;;;;;;5065069;28;20463;-86
2020/12/06 08:39:45;;;;;;;1999.90;999.90;;;;;;;;;;5065857;28;20060;-87
2020/12/06 08:42:15;;;;;;;1999.90;999.90;;;;;;;;;;5062116;28;20043;-87
2020/12/06 08:44:52;;;;;;;1999.90;999.90;;;;;;;;;;5056645;28;20028;-86
2020/12/06 08:47:18;;;;;;;1999.90;999.90;;;;;;;;;;5050235;28;20025;-83
2020/12/06 08:49:44;;;;;;;1999.90;999.90;;;;;;;;;;5051099;28;20028;-84
2020/12/06 08:52:20;;;;;;;1999.90;999.90;;;;;;;;;;5052152;28;20491;-83
2020/12/06 08:54:48;;;;;;;1999.90;999.90;;;;;;;;;;5051550;28;20068;-83
2020/12/06 08:57:14;;;;;;;1999.90;999.90;;;;;;;;;;5043233;28;20489;-84
2020/12/06 08:59:41;;;;;;;1999.90;999.90;;;;;;;;;;5052863;28;20075;-85
2020/12/06 09:02:07;;;;;;;1999.90;999.90;;;;;;;;;;5056020;28;20016;-84
2020/12/06 09:04:34;;;;;;;1999.90;999.90;;;;;;;;;;5051009;28;20032;-83
2020/12/06 09:07:00;;;;;;;1999.90;999.90;;;;;;;;;;5052645;28;20029;-85
2020/12/06 09:09:26;;;;;;;1999.90;999.90;;;;;;;;;;5031931;28;20017;-85
2020/12/06 09:11:52;;;;;;;1999.90;999.90;;;;;;;;;;5057552;28;20029;-88
2020/12/06 09:14:19;;;;;;;1999.90;999.90;;;;;;;;;;5044926;28;20124;-89
2020/12/06 09:16:44;;;;;;;1999.90;999.90;;;;;;;;;;5053765;28;20513;-85
2020/12/06 09:19:11;;;;;;;1999.90;999.90;;;;;;;;;;5065043;28;20104;-84
2020/12/06 09:21:37;;;;;;;1999.90;999.90;;;;;;;;;;5073875;28;20380;-85
2020/12/06 09:24:03;;;;;;;1999.90;999.90;;;;;;;;;;5074880;28;20056;-86
2020/12/06 09:26:29;;;;;;;1999.90;999.90;;;;;;;;;;5058052;28;20032;-85
2020/12/06 09:28:55;;;;;;;1999.90;999.90;;;;;;;;;;5054954;28;20120;-85
2020/12/06 09:31:25;;;;;;;1999.90;999.90;;;;;;;;;;5054299;28;20119;-86
2020/12/06 09:33:51;;;;;;;1999.90;999.90;;;;;;;;;;5052478;28;20493;-85
2020/12/06 09:36:18;;;;;;;1999.90;999.90;;;;;;;;;;5054637;28;20028;-86
2020/12/06 09:38:44;;;;;;;1999.90;999.90;;;;;;;;;;5054418;28;20036;-84
2020/12/06 09:41:12;;;;;;;1999.90;999.90;;;;;;;;;;5035605;28;20420;-84
2020/12/06 09:43:38;;;;;;;1999.90;999.90;;;;;;;;;;5036250;28;20021;-84
2020/12/06 09:46:04;;;;;;;1999.90;999.90;;;;;;;;;;5050440;28;20108;-84
2020/12/06 09:48:30;;;;;;;1999.90;999.90;;;;;;;;;;5056675;28;20060;-84
2020/12/06 09:50:56;;;;;;;1999.90;999.90;;;;;;;;;;5037251;28;20021;-85
2020/12/06 09:53:22;;;;;;;1999.90;999.90;;;;;;;;;;5048146;28;20033;-85
2020/12/06 09:55:48;;;;;;;1999.90;999.90;;;;;;;;;;5072346;28;20108;-85
2020/12/06 09:58:14;;;;;;;1999.90;999.90;;;;;;;;;;5049959;28;20116;-85
2020/12/06 10:00:42;;;;;;;1999.90;999.90;;;;;;;;;;5052384;28;20556;-84
2020/12/06 10:03:08;;;;;;;1999.90;999.90;;;;;;;;;;5049430;28;20432;-84
2020/12/06 10:05:34;;;;;;;1999.90;999.90;;;;;;;;;;5050097;28;20087;-84
2020/12/06 10:08:00;;;;;;;1999.90;999.90;;;;;;;;;;5050938;28;20037;-85
2020/12/06 10:10:26;;;;;;;1999.90;999.90;;;;;;;;;;5052999;28;20154;-86
2020/12/06 10:12:52;;;;;;;1999.90;999.90;;;;;;;;;;5047994;28;20121;-85
2020/12/06 10:15:18;;;;;;;1999.90;999.90;;;;;;;;;;5033883;28;20458;-85
2020/12/06 10:17:44;;;;;;;1999.90;999.90;;;;;;;;;;5031144;28;20611;-84
2020/12/06 10:20:10;;;;;;;1999.90;999.90;;;;;;;;;;5061770;28;20055;-85
2020/12/06 10:22:36;;;;;;;1999.90;999.90;;;;;;;;;;5054881;28;20044;-86
2020/12/06 10:25:03;;;;;;;1999.90;999.90;;;;;;;;;;5051970;28;20470;-85
2020/12/06 10:27:29;;;;;;;1999.90;999.90;;;;;;;;;;5042556;28;20082;-85
2020/12/06 10:29:58;;;;;;;1999.90;999.90;;;;;;;;;;5052587;28;20041;-84
2020/12/06 10:32:24;;;;;;;1999.90;999.90;;;;;;;;;;5054098;28;20029;-85
2020/12/06 10:34:50;;;;;;;1999.90;999.90;;;;;;;;;;5036844;28;20420;-84
2020/12/06 10:37:16;;;;;;;1999.90;999.90;;;;;;;;;;5037006;28;20021;-85
2020/12/06 10:39:42;;;;;;;1999.90;999.90;;;;;;;;;;5053991;28;20481;-84
2020/12/06 10:42:08;;;;;;;1999.90;999.90;;;;;;;;;;5041061;28;20029;-84
2020/12/06 10:44:34;;;;;;;1999.90;999.90;;;;;;;;;;5045435;28;20516;-84
2020/12/06 10:47:00;;;;;;;1999.90;999.90;;;;;;;;;;5039870;28;20442;-83
2020/12/06 10:49:27;;;;;;;1999.90;999.90;;;;;;;;;;5048417;28;20043;-83
2020/12/06 10:51:53;;;;;;;1999.90;999.90;;;;;;;;;;5045896;28;20464;-83
2020/12/06 10:54:19;;;;;;;1999.90;999.90;;;;;;;;;;5055194;28;20021;-83
2020/12/06 10:56:45;;;;;;;615.85;353.70;;;;;;;;;;5049677;28;20029;-84
2020/12/06 10:59:11;;;;;;;1999.90;999.90;;;;;;;;;;5033122;28;20060;-83
2020/12/06 11:01:37;;;;;;;1999.90;999.90;;;;;;;;;;5053046;28;20021;-85
2020/12/06 11:04:04;;;;;;;1999.90;999.90;;;;;;;;;;5050290;28;20540;-84
2020/12/06 11:06:30;;;;;;;1999.90;999.90;;;;;;;;;;5047438;28;20029;-83
2020/12/06 11:08:56;;;;;;;1999.90;999.90;;;;;;;;;;5052671;28;20635;-85
2020/12/06 11:11:23;;;;;;;1999.90;999.90;;;;;;;;;;5049449;28;20043;-84
2020/12/06 11:13:49;;;;;;;1077.45;569.45;;;;;;;;;;5050624;28;20104;-84
2020/12/06 11:16:16;;;;;;;152.40;136.88;;;;;;;;;;5048443;28;20135;-85
2020/12/06 11:18:42;;;;;;;1999.90;999.90;;;;;;;;;;5037459;28;20096;-84
2020/12/06 11:21:08;;;;;;;1999.90;999.90;;;;;;;;;;5050887;28;20473;-85
2020/12/06 11:23:34;;;;;;;1999.90;999.90;;;;;;;;;;5052088;28;20790;-87
2020/12/06 11:26:01;;;;;;;152.82;136.05;;;;;;;;;;5051651;28;20045;-85
2020/12/06 11:28:27;;;;;;;152.70;137.25;;;;;;;;;;5053922;28;20048;-86
2020/12/06 11:30:53;;;;;;;154.98;138.85;;;;;;;;;;5035434;28;20400;-86
2020/12/06 11:33:19;;;;;;;157.98;139.60;;;;;;;;;;5041324;28;20025;-87
2020/12/06 11:35:47;;;;;;;150.63;135.27;;;;;;;;;;5045539;28;20025;-88
2020/12/06 11:38:13;;;;;;;155.10;139.05;;;;;;;;;;5042709;28;20093;-87
2020/12/06 11:40:39;;;;;;;151.13;135.57;;;;;;;;;;5040060;28;20480;-89
2020/12/06 11:43:05;;;;;;;154.68;138.73;;;;;;;;;;5058121;28;20506;-86
2020/12/06 11:45:31;;;;;;;149.85;134.68;;;;;;;;;;5061689;28;20025;-87
2020/12/06 11:47:57;;;;;;;150.55;134.93;;;;;;;;;;5048332;28;20033;-86
2020/12/06 11:50:23;;;;;;;156.90;140.43;;;;;;;;;;5050312;28;20021;-86
2020/12/06 11:52:49;;;;;;;158.40;141.40;;;;;;;;;;5053952;28;20025;-87
2020/12/06 11:55:15;;;;;;;153.18;137.70;;;;;;;;;;5052346;28;20120;-85
2020/12/06 11:57:41;;;;;;;156.45;139.80;;;;;;;;;;5033685;28;20080;-86
2020/12/06 12:00:08;;;;;;;155.13;139.13;;;;;;;;;;5049670;28;20017;-87
2020/12/06 12:02:34;;;;;;;154.23;138.00;;;;;;;;;;5051541;28;20033;-86
2020/12/06 12:05:00;;;;;;;153.82;138.88;;;;;;;;;;5051435;28;20021;-85
2020/12/06 12:07:26;;;;;;;152.45;136.25;;;;;;;;;;5039784;28;20044;-87
2020/12/06 12:09:52;;;;;;;144.63;129.43;;;;;;;;;;5051086;28;20021;-87
2020/12/06 12:12:18;;;;;;;150.82;135.57;;;;;;;;;;5051018;28;20025;-88
2020/12/06 12:14:45;;;;;;;152.50;136.63;;;;;;;;;;5049398;28;20453;-75
2020/12/06 12:17:11;;;;;;;152.77;136.52;;;;;;;;;;5049758;28;20102;-90
2020/12/06 12:19:37;;;;;;;151.40;134.88;;;;;;;;;;5044054;28;20520;-89
2020/12/06 12:22:03;;;;;;;151.85;136.55;;;;;;;;;;5052734;28;20039;-89
2020/12/06 12:24:29;;;;;;;154.85;138.68;;;;;;;;;;5047238;28;20499;-89
2020/12/06 12:26:59;;;;;;;154.18;138.25;;;;;;;;;;5052039;28;20331;-89
2020/12/06 12:29:28;;;;;;;151.00;135.50;;;;;;;;;;5031527;28;20517;-87
2020/12/06 12:31:54;;;;;;;147.50;132.88;;;;;;;;;;5050317;28;20482;-89
2020/12/06 12:34:21;;;;;;;153.55;137.50;;;;;;;;;;5032198;28;20033;-87
2020/12/06 12:36:47;;;;;;;150.82;134.75;;;;;;;;;;5042619;28;20441;-87
2020/12/06 12:39:14;;;;;;;153.35;137.43;;;;;;;;;;5047565;28;20021;-88
2020/12/06 12:41:40;;;;;;;150.43;134.68;;;;;;;;;;5030704;28;20472;-88
2020/12/06 12:44:07;;;;;;;149.10;132.85;;;;;;;;;;5048373;28;20100;-89
2020/12/06 12:46:33;;;;;;;149.18;133.15;;;;;;;;;;5051853;28;20025;-86
2020/12/06 12:49:00;;;;;;;144.25;129.15;;;;;;;;;;5050731;28;20037;-86
2020/12/06 12:51:29;;;;;;;144.90;129.73;;;;;;;;;;5040740;28;20477;-87
2020/12/06 12:53:56;;;;;;;150.95;134.48;;;;;;;;;;5051477;28;20029;-87
2020/12/06 12:56:23;;;;;;;147.88;132.45;;;;;;;;;;5033389;28;20033;-87
2020/12/06 12:58:49;;;;;;;150.60;134.50;;;;;;;;;;5051674;28;20025;-87
2020/12/06 13:01:15;;;;;;;148.65;132.38;;;;;;;;;;5050349;28;20017;-87
2020/12/06 13:03:41;;;;;;;149.98;133.90;;;;;;;;;;5034100;28;20520;-85
2020/12/06 13:06:10;;;;;;;153.07;136.95;;;;;;;;;;5049556;28;20108;-89
2020/12/06 13:08:36;;;;;;;147.73;131.98;;;;;;;;;;5050850;28;20497;-85
2020/12/06 13:11:02;;;;;;;150.90;134.57;;;;;;;;;;5051714;28;20025;-86
2020/12/06 13:13:28;;;;;;;147.88;132.75;;;;;;;;;;5031889;28;20025;-86
2020/12/06 13:15:54;;;;;;;151.80;135.35;;;;;;;;;;5047254;28;20093;-86
2020/12/06 13:18:20;;;;;;;150.23;135.02;;;;;;;;;;5044775;28;20445;-86
2020/12/06 13:20:46;;;;;;;152.80;136.45;;;;;;;;;;5052013;28;20025;-87
2020/12/06 13:23:12;;;;;;;154.93;139.05;;;;;;;;;;5056352;28;20466;-92
2020/12/06 13:25:38;;;;;;;151.30;135.93;;;;;;;;;;5056034;28;20059;-90
2020/12/06 13:28:04;;;;;;;155.18;135.98;;;;;;;;;;5056999;28;20033;-91
2020/12/06 13:30:30;;;;;;;153.07;137.38;;;;;;;;;;5052815;28;20124;-92
2020/12/06 13:32:56;;;;;;;154.50;138.00;;;;;;;;;;5036232;28;20028;-91
2020/12/06 13:35:22;;;;;;;152.32;136.85;;;;;;;;;;5059286;28;20017;-93
2020/12/06 13:37:48;;;;;;;154.30;137.70;;;;;;;;;;5050252;28;20032;-92
2020/12/06 13:40:14;;;;;;;152.57;135.98;;;;;;;;;;5034220;28;20029;-92